createdAt,value
2022-12-19T00:03:25.634Z,100110.28
2022-12-19T00:08:36.630Z,100108.34
2022-12-19T00:13:42.214Z,100111.91
2022-12-19T00:18:47.687Z,100120.75
2022-12-19T00:23:51.984Z,100139.41
2022-12-19T00:28:58.631Z,100128.34
2022-12-19T00:34:02.710Z,100129.34
2022-12-19T00:39:07.888Z,100134.63
2022-12-19T00:44:15.533Z,100135.81
2022-12-19T00:49:19.394Z,100120.22
2022-12-19T00:54:23.010Z,100117.31
2022-12-19T00:59:28.494Z,100113.19
2022-12-19T01:04:35.660Z,100108.59
2022-12-19T01:09:43.507Z,100110.06
2022-12-19T01:14:50.214Z,100112.09
2022-12-19T01:19:53.846Z,100100.41
2022-12-19T01:24:57.281Z,100091.97
2022-12-19T01:30:03.122Z,100095.84
2022-12-19T01:35:09.931Z,100089.72
2022-12-19T01:40:25.525Z,100064.53
2022-12-19T01:45:34.670Z,100086.53
2022-12-19T01:50:56.217Z,100076.53
2022-12-19T01:56:11.225Z,100076.28
2022-12-19T02:01:17.874Z,100067.06
2022-12-19T02:06:21.646Z,100066.75
2022-12-19T02:11:25.328Z,100057.56
2022-12-19T02:16:42.581Z,100044.03
2022-12-19T02:21:54.829Z,100056.47
2022-12-19T02:27:35.925Z,100049.00
2022-12-19T02:32:51.994Z,100042.28
2022-12-19T02:38:05.704Z,100036.88
2022-12-19T02:43:13.295Z,100030.50
2022-12-19T02:48:20.089Z,100023.78
2022-12-19T02:53:24.208Z,100026.75
2022-12-19T02:58:49.804Z,100019.63
2022-12-19T03:04:05.716Z,100007.53
2022-12-19T03:09:17.957Z,99997.72
2022-12-19T03:14:22.591Z,100005.09
2022-12-19T03:19:27.688Z,100007.31
2022-12-19T03:24:31.528Z,100000.97
2022-12-19T03:29:38.977Z,99987.13
2022-12-19T03:34:48.795Z,99976.38
2022-12-19T03:40:00.557Z,99948.84
2022-12-19T03:45:06.924Z,99974.50
2022-12-19T03:50:12.675Z,99979.50
2022-12-19T03:55:21.188Z,99962.91
2022-12-19T04:00:26.090Z,99963.91
2022-12-19T04:05:31.457Z,99971.06
2022-12-19T04:10:40.007Z,99969.16
2022-12-19T04:15:52.011Z,99965.72
2022-12-19T04:21:03.719Z,99984.44
2022-12-19T04:26:10.367Z,99992.31
2022-12-19T04:31:16.511Z,99980.00
2022-12-19T04:36:21.459Z,99982.44
2022-12-19T04:41:25.175Z,99986.06
2022-12-19T04:46:28.810Z,99977.47
2022-12-19T04:51:33.878Z,99980.06
2022-12-19T04:56:37.599Z,99982.59
2022-12-19T05:01:41.114Z,99953.09
2022-12-19T05:06:46.263Z,99955.50
2022-12-19T05:11:49.952Z,99964.53
2022-12-19T05:16:57.333Z,99916.16
2022-12-19T05:22:05.745Z,99964.94
2022-12-19T05:27:09.651Z,99960.50
2022-12-19T05:32:13.430Z,99944.03
2022-12-19T05:37:18.613Z,99954.69
2022-12-19T05:42:22.279Z,99949.59
2022-12-19T05:47:25.913Z,99956.72
2022-12-19T05:52:30.812Z,99954.25
2022-12-19T05:57:34.527Z,99969.91
2022-12-19T06:02:38.287Z,99965.25
2022-12-19T06:07:43.499Z,99969.03
2022-12-19T06:12:46.840Z,99970.25
2022-12-19T06:17:54.281Z,99961.16
2022-12-19T06:22:59.153Z,99940.44
2022-12-19T06:28:03.630Z,99958.84
2022-12-19T06:33:07.000Z,99953.78
2022-12-19T06:38:13.101Z,99963.22
2022-12-19T06:43:16.507Z,99937.75
2022-12-19T06:48:20.156Z,99932.84
2022-12-19T06:53:25.205Z,99935.19
2022-12-19T06:58:29.357Z,99950.72
2022-12-19T07:03:37.605Z,99960.50
2022-12-19T07:08:42.921Z,99963.75
2022-12-19T07:13:46.374Z,99967.25
2022-12-19T07:18:50.346Z,99976.81
2022-12-19T07:23:55.638Z,99962.00
2022-12-19T07:29:00.023Z,99970.88
2022-12-19T07:34:03.509Z,99969.53
2022-12-19T07:39:08.625Z,99961.09
2022-12-19T07:44:13.897Z,99960.41
2022-12-19T07:49:22.453Z,99961.47
2022-12-19T07:54:27.836Z,99972.50
2022-12-19T07:59:38.690Z,99979.38
2022-12-19T08:04:42.798Z,99980.31
2022-12-19T08:09:48.097Z,99957.41
2022-12-19T08:14:56.864Z,99972.47
2022-12-19T08:20:00.863Z,99961.06
2022-12-19T08:25:07.551Z,99961.41
2022-12-19T08:30:13.752Z,99953.31
2022-12-19T08:35:17.367Z,99957.28
2022-12-19T08:40:23.690Z,99954.69
2022-12-19T08:45:27.164Z,99961.28
2022-12-19T08:50:30.829Z,99954.50
2022-12-19T08:55:37.294Z,99956.53
2022-12-19T09:00:41.343Z,99956.44
2022-12-19T09:05:59.416Z,99947.66
2022-12-19T09:11:09.887Z,99945.94
2022-12-19T09:16:16.318Z,99950.91
2022-12-19T09:21:21.452Z,99954.19
2022-12-19T09:26:28.610Z,99960.06
2022-12-19T09:31:37.596Z,99951.13
2022-12-19T09:36:41.416Z,99951.84
2022-12-19T09:42:13.639Z,99964.41
2022-12-19T09:47:21.153Z,99951.94
2022-12-19T09:52:33.107Z,99929.41
2022-12-19T09:57:43.257Z,99950.59
2022-12-19T10:02:51.421Z,99958.75
2022-12-19T10:08:08.464Z,99957.31
2022-12-19T10:13:25.519Z,99942.97
2022-12-19T10:18:44.149Z,99947.81
2022-12-19T10:24:20.316Z,99923.75
2022-12-19T10:30:02.876Z,99942.75
2022-12-19T10:35:14.897Z,99938.84
2022-12-19T10:40:28.059Z,99952.09
2022-12-19T10:45:40.706Z,99953.63
2022-12-19T10:50:45.469Z,99951.47
2022-12-19T10:55:51.034Z,99952.63
2022-12-19T11:01:05.383Z,99959.59
2022-12-19T11:06:41.670Z,99966.13
2022-12-19T11:13:27.303Z,99966.22
2022-12-19T11:23:50.293Z,99977.53
2022-12-19T11:30:05.417Z,99972.72
2022-12-19T11:30:47.109Z,99966.53
2022-12-19T11:33:48.644Z,99961.72
2022-12-19T11:38:55.248Z,99968.59
2022-12-19T11:44:03.634Z,99960.59
2022-12-19T11:49:19.010Z,99976.41
2022-12-19T11:54:28.727Z,99966.44
2022-12-19T11:59:34.429Z,99970.19
2022-12-19T12:04:56.270Z,99985.63
2022-12-19T12:14:42.292Z,99991.41
2022-12-19T12:27:22.484Z,99997.28
2022-12-19T12:31:12.648Z,100006.22
2022-12-19T12:31:43.770Z,100018.81
2022-12-19T12:35:56.480Z,100021.31
2022-12-19T12:38:18.861Z,100035.25
2022-12-19T12:43:32.967Z,100020.97
2022-12-19T12:48:44.158Z,100031.84
2022-12-19T12:53:50.829Z,100020.47
2022-12-19T12:59:20.602Z,100024.81
2022-12-19T13:04:31.735Z,100029.34
2022-12-19T13:09:38.260Z,100028.53
2022-12-19T13:14:47.736Z,100031.59
2022-12-19T13:19:57.676Z,100045.09
2022-12-19T13:25:02.818Z,100040.06
2022-12-19T13:30:18.001Z,100064.94
2022-12-19T13:37:05.666Z,100050.25
2022-12-19T13:41:25.197Z,100061.16
2022-12-19T13:46:41.875Z,100067.53
2022-12-19T13:51:51.192Z,100074.41
2022-12-19T13:56:57.011Z,100076.38
2022-12-19T14:02:09.836Z,100071.44
2022-12-19T14:07:36.687Z,100075.41
2022-12-19T14:13:56.803Z,100064.88
2022-12-19T14:18:43.398Z,100063.75
2022-12-19T14:23:49.490Z,100064.91
2022-12-19T14:29:00.034Z,100052.56
2022-12-19T14:34:35.719Z,100073.31
2022-12-19T14:39:32.773Z,100087.84
2022-12-19T14:52:25.461Z,100086.53
2022-12-19T14:54:34.887Z,100075.06
2022-12-19T14:56:28.132Z,100081.97
2022-12-19T15:01:33.375Z,100068.41
2022-12-19T15:07:07.028Z,100081.41
2022-12-19T15:14:03.963Z,100084.31
2022-12-19T15:17:57.552Z,100080.31
2022-12-19T15:23:00.897Z,100090.16
2022-12-19T15:28:04.335Z,100092.25
2022-12-19T15:33:15.201Z,100092.16
2022-12-19T15:38:18.856Z,100087.03
2022-12-19T15:44:02.050Z,100082.19
2022-12-19T15:48:51.842Z,100086.13
2022-12-19T15:54:09.112Z,100094.22
2022-12-19T15:59:38.764Z,100096.28
2022-12-19T16:04:44.170Z,100105.50
2022-12-19T16:09:48.215Z,100109.94
2022-12-19T16:15:00.110Z,100108.56
2022-12-19T16:20:05.327Z,100102.97
2022-12-19T16:25:09.549Z,100110.25
2022-12-19T16:30:20.378Z,100109.63
2022-12-19T16:36:01.717Z,100114.97
2022-12-19T16:40:51.828Z,100113.34
2022-12-19T16:46:00.608Z,100116.13
2022-12-19T16:51:06.543Z,100119.97
2022-12-19T16:56:21.618Z,100120.22
2022-12-19T17:01:24.979Z,100109.69
2022-12-19T17:06:30.203Z,100111.50
2022-12-19T17:11:34.183Z,100117.72
2022-12-19T17:16:38.710Z,100125.69
2022-12-19T17:21:43.869Z,100132.88
2022-12-19T17:26:48.115Z,100127.38
2022-12-19T17:31:51.824Z,100122.47
2022-12-19T17:36:56.989Z,100140.03
2022-12-19T17:42:04.200Z,100142.97
2022-12-19T17:47:07.880Z,100140.41
2022-12-19T17:52:16.336Z,100133.66
2022-12-19T17:57:20.225Z,100136.66
2022-12-19T18:02:26.011Z,100141.56
2022-12-19T18:07:31.182Z,100147.78
2022-12-19T18:12:34.629Z,100153.41
2022-12-19T18:17:40.366Z,100145.16
2022-12-19T18:22:45.094Z,100156.06
2022-12-19T18:27:48.641Z,100158.75
2022-12-19T18:32:57.099Z,100159.69
2022-12-19T18:38:03.699Z,100157.13
2022-12-19T18:43:07.096Z,100164.81
2022-12-19T18:48:17.503Z,100170.69
2022-12-19T18:53:23.360Z,100174.53
2022-12-19T18:58:28.390Z,100168.56
2022-12-19T19:03:34.269Z,100161.25
2022-12-19T19:08:39.393Z,100166.50
2022-12-19T19:13:42.885Z,100166.28
2022-12-19T19:18:48.081Z,100173.69
2022-12-19T19:23:57.289Z,100177.09
2022-12-19T19:29:00.924Z,100175.47
2022-12-19T19:34:11.183Z,100159.84
2022-12-19T19:39:16.648Z,100160.38
2022-12-19T19:44:20.167Z,100170.28
2022-12-19T19:49:24.545Z,100151.97
2022-12-19T19:54:29.460Z,100169.16
2022-12-19T19:59:32.694Z,100184.34
2022-12-19T20:04:36.366Z,100157.88
2022-12-19T20:09:41.346Z,100192.69
2022-12-19T20:14:45.242Z,100195.03
2022-12-19T20:19:48.891Z,100196.91
2022-12-19T20:24:54.230Z,100190.41
2022-12-19T20:29:58.266Z,100194.00
2022-12-19T20:35:01.632Z,100185.16
2022-12-19T20:40:09.162Z,100174.84
2022-12-19T20:45:12.662Z,100166.53
2022-12-19T20:50:16.515Z,100161.84
2022-12-19T20:55:21.301Z,100163.25
2022-12-19T21:00:24.749Z,100174.13
2022-12-19T21:05:28.157Z,100177.88
2022-12-19T21:10:33.452Z,100179.31
2022-12-19T21:15:36.965Z,100175.81
2022-12-19T21:20:40.803Z,100159.84
2022-12-19T21:25:45.934Z,100171.00
2022-12-19T21:30:57.090Z,100181.94
2022-12-19T21:36:07.309Z,100171.47
2022-12-19T21:41:18.988Z,100160.94
2022-12-19T21:46:24.419Z,100162.06
2022-12-19T21:51:32.641Z,100159.75
2022-12-19T21:56:40.277Z,100169.75
2022-12-19T22:01:45.007Z,100169.34
2022-12-19T22:06:48.485Z,100161.00
2022-12-19T22:11:53.517Z,100167.03
2022-12-19T22:16:57.186Z,100157.50
2022-12-19T22:22:00.818Z,100157.91
2022-12-19T22:27:05.973Z,100176.75
2022-12-19T22:32:09.704Z,100174.84
2022-12-19T22:37:13.370Z,100181.75
2022-12-19T22:42:18.762Z,100183.22
2022-12-19T22:47:22.324Z,100158.78
2022-12-19T22:52:25.629Z,100170.53
2022-12-19T22:57:30.673Z,100177.91
2022-12-19T23:02:34.114Z,100178.25
2022-12-19T23:07:37.975Z,100175.50
2022-12-19T23:12:42.773Z,100171.34
2022-12-19T23:17:46.471Z,100185.75
2022-12-19T23:22:49.866Z,100171.28
2022-12-19T23:27:55.272Z,100178.00
2022-12-19T23:32:58.604Z,100165.53
2022-12-19T23:38:02.224Z,100175.66
2022-12-19T23:43:07.080Z,100176.97
2022-12-19T23:48:10.870Z,100169.56
2022-12-19T23:53:14.448Z,100152.88
2022-12-19T23:58:24.397Z,100158.25
